sensor_id;sensor_type;location;lat;lon;timestamp;pressure;altitude;pressure_sealevel;temperature
62611;BMP280;48683;48.084;17.272;2022-07-09T00:00:06;101151.19;;;16.80
62611;BMP280;48683;48.084;17.272;2022-07-09T00:02:31;101144.63;;;16.77
62611;BMP280;48683;48.084;17.272;2022-07-09T00:04:57;101141.91;;;16.77
62611;BMP280;48683;48.084;17.272;2022-07-09T00:07:22;101151.28;;;16.73
62611;BMP280;48683;48.084;17.272;2022-07-09T00:09:47;101155.63;;;16.63
62611;BMP280;48683;48.084;17.272;2022-07-09T00:12:13;101150.59;;;16.65
62611;BMP280;48683;48.084;17.272;2022-07-09T00:14:38;101156.78;;;16.62
62611;BMP280;48683;48.084;17.272;2022-07-09T00:17:04;101158.34;;;16.63
62611;BMP280;48683;48.084;17.272;2022-07-09T00:19:29;101156.81;;;16.58
62611;BMP280;48683;48.084;17.272;2022-07-09T00:21:54;101147.16;;;16.54
62611;BMP280;48683;48.084;17.272;2022-07-09T00:24:20;101152.25;;;16.48
62611;BMP280;48683;48.084;17.272;2022-07-09T00:26:45;101155.41;;;16.43
62611;BMP280;48683;48.084;17.272;2022-07-09T00:29:11;101162.72;;;16.46
62611;BMP280;48683;48.084;17.272;2022-07-09T00:31:36;101163.50;;;16.47
62611;BMP280;48683;48.084;17.272;2022-07-09T00:34:01;101153.50;;;16.40
62611;BMP280;48683;48.084;17.272;2022-07-09T00:36:27;101152.00;;;16.36
62611;BMP280;48683;48.084;17.272;2022-07-09T00:38:52;101150.81;;;16.37
62611;BMP280;48683;48.084;17.272;2022-07-09T00:41:17;101147.81;;;16.28
62611;BMP280;48683;48.084;17.272;2022-07-09T00:43:46;101147.47;;;16.22
62611;BMP280;48683;48.084;17.272;2022-07-09T00:46:13;101146.59;;;16.32
62611;BMP280;48683;48.084;17.272;2022-07-09T00:48:38;101147.47;;;16.22
62611;BMP280;48683;48.084;17.272;2022-07-09T00:51:03;101147.47;;;16.19
62611;BMP280;48683;48.084;17.272;2022-07-09T00:53:29;101134.44;;;16.10
62611;BMP280;48683;48.084;17.272;2022-07-09T00:55:54;101148.28;;;16.15
62611;BMP280;48683;48.084;17.272;2022-07-09T00:58:20;101143.69;;;16.12
62611;BMP280;48683;48.084;17.272;2022-07-09T01:00:46;101140.56;;;16.18
62611;BMP280;48683;48.084;17.272;2022-07-09T01:03:12;101134.78;;;16.12
62611;BMP280;48683;48.084;17.272;2022-07-09T01:05:37;101137.16;;;16.06
62611;BMP280;48683;48.084;17.272;2022-07-09T01:08:04;101130.59;;;16.04
62611;BMP280;48683;48.084;17.272;2022-07-09T01:10:30;101139.53;;;16.01
62611;BMP280;48683;48.084;17.272;2022-07-09T01:12:55;101138.38;;;16.02
62611;BMP280;48683;48.084;17.272;2022-07-09T01:15:21;101149.97;;;16.02
62611;BMP280;48683;48.084;17.272;2022-07-09T01:17:46;101150.34;;;16.01
62611;BMP280;48683;48.084;17.272;2022-07-09T01:20:12;101129.94;;;15.89
62611;BMP280;48683;48.084;17.272;2022-07-09T01:22:37;101136.03;;;16.00
62611;BMP280;48683;48.084;17.272;2022-07-09T01:25:05;101137.69;;;15.91
62611;BMP280;48683;48.084;17.272;2022-07-09T01:27:35;101140.78;;;15.89
62611;BMP280;48683;48.084;17.272;2022-07-09T01:30:00;101148.44;;;15.98
62611;BMP280;48683;48.084;17.272;2022-07-09T01:32:26;101140.34;;;15.94
62611;BMP280;48683;48.084;17.272;2022-07-09T01:34:51;101132.72;;;15.82
62611;BMP280;48683;48.084;17.272;2022-07-09T01:37:16;101126.84;;;15.91
62611;BMP280;48683;48.084;17.272;2022-07-09T01:39:42;101135.72;;;15.95
62611;BMP280;48683;48.084;17.272;2022-07-09T01:42:19;101128.75;;;15.94
62611;BMP280;48683;48.084;17.272;2022-07-09T01:44:45;101129.94;;;15.89
62611;BMP280;48683;48.084;17.272;2022-07-09T01:47:10;101139.66;;;15.87
62611;BMP280;48683;48.084;17.272;2022-07-09T01:49:36;101126.47;;;15.89
62611;BMP280;48683;48.084;17.272;2022-07-09T01:52:03;101132.63;;;15.93
62611;BMP280;48683;48.084;17.272;2022-07-09T01:54:29;101141.13;;;15.95
62611;BMP280;48683;48.084;17.272;2022-07-09T01:56:54;101121.81;;;15.89
62611;BMP280;48683;48.084;17.272;2022-07-09T01:59:19;101132.16;;;16.01
62611;BMP280;48683;48.084;17.272;2022-07-09T02:01:45;101129.47;;;16.01
62611;BMP280;48683;48.084;17.272;2022-07-09T02:04:10;101125.25;;;15.97
62611;BMP280;48683;48.084;17.272;2022-07-09T02:06:35;101130.72;;;15.90
62611;BMP280;48683;48.084;17.272;2022-07-09T02:09:01;101132.28;;;15.87
62611;BMP280;48683;48.084;17.272;2022-07-09T02:11:26;101108.38;;;15.79
62611;BMP280;48683;48.084;17.272;2022-07-09T02:13:51;101126.47;;;15.89
62611;BMP280;48683;48.084;17.272;2022-07-09T02:16:17;101122.25;;;15.84
62611;BMP280;48683;48.084;17.272;2022-07-09T02:18:42;101125.66;;;15.92
62611;BMP280;48683;48.084;17.272;2022-07-09T02:21:07;101123.34;;;15.94
62611;BMP280;48683;48.084;17.272;2022-07-09T02:23:33;101126.81;;;15.94
62611;BMP280;48683;48.084;17.272;2022-07-09T02:25:58;101121.06;;;15.85
62611;BMP280;48683;48.084;17.272;2022-07-09T02:28:23;101128.03;;;15.86
62611;BMP280;48683;48.084;17.272;2022-07-09T02:30:49;101121.81;;;15.89
62611;BMP280;48683;48.084;17.272;2022-07-09T02:33:14;101128.38;;;15.92
62611;BMP280;48683;48.084;17.272;2022-07-09T02:35:39;101120.34;;;15.81
62611;BMP280;48683;48.084;17.272;2022-07-09T02:38:05;101127.59;;;15.91
62611;BMP280;48683;48.084;17.272;2022-07-09T02:40:30;101126.56;;;15.78
62611;BMP280;48683;48.084;17.272;2022-07-09T02:42:55;101126.13;;;15.80
62611;BMP280;48683;48.084;17.272;2022-07-09T02:45:21;101134.50;;;15.99
62611;BMP280;48683;48.084;17.272;2022-07-09T02:47:46;101132.56;;;16.00
62611;BMP280;48683;48.084;17.272;2022-07-09T02:50:12;101128.34;;;15.99
62611;BMP280;48683;48.084;17.272;2022-07-09T02:52:37;101122.50;;;16.00
62611;BMP280;48683;48.084;17.272;2022-07-09T02:55:02;101110.22;;;15.89
62611;BMP280;48683;48.084;17.272;2022-07-09T02:57:28;101111.09;;;15.75
62611;BMP280;48683;48.084;17.272;2022-07-09T02:59:53;101112.59;;;15.83
62611;BMP280;48683;48.084;17.272;2022-07-09T03:02:19;101104.94;;;15.75
62611;BMP280;48683;48.084;17.272;2022-07-09T03:04:45;101116.13;;;15.73
62611;BMP280;48683;48.084;17.272;2022-07-09T03:07:10;101102.38;;;15.50
62611;BMP280;48683;48.084;17.272;2022-07-09T03:09:35;101118.56;;;15.57
62611;BMP280;48683;48.084;17.272;2022-07-09T03:12:01;101127.44;;;15.61
62611;BMP280;48683;48.084;17.272;2022-07-09T03:14:26;101134.41;;;15.58
62611;BMP280;48683;48.084;17.272;2022-07-09T03:16:52;101125.19;;;15.52
62611;BMP280;48683;48.084;17.272;2022-07-09T03:19:17;101127.88;;;15.56
62611;BMP280;48683;48.084;17.272;2022-07-09T03:21:44;101122.44;;;15.49
62611;BMP280;48683;48.084;17.272;2022-07-09T03:24:09;101115.13;;;15.46
62611;BMP280;48683;48.084;17.272;2022-07-09T03:26:34;101121.38;;;15.39
62611;BMP280;48683;48.084;17.272;2022-07-09T03:29:00;101121.00;;;15.34
62611;BMP280;48683;48.084;17.272;2022-07-09T03:31:25;101113.69;;;15.31
62611;BMP280;48683;48.084;17.272;2022-07-09T03:33:50;101124.47;;;15.34
62611;BMP280;48683;48.084;17.272;2022-07-09T03:36:18;101109.09;;;15.24
62611;BMP280;48683;48.084;17.272;2022-07-09T03:38:44;101114.81;;;15.33
62611;BMP280;48683;48.084;17.272;2022-07-09T03:41:09;101123.28;;;15.42
62611;BMP280;48683;48.084;17.272;2022-07-09T03:43:34;101125.56;;;15.51
62611;BMP280;48683;48.084;17.272;2022-07-09T03:46:00;101130.91;;;15.61
62611;BMP280;48683;48.084;17.272;2022-07-09T03:48:25;101127.34;;;15.75
62611;BMP280;48683;48.084;17.272;2022-07-09T03:50:50;101133.47;;;15.83
62611;BMP280;48683;48.084;17.272;2022-07-09T03:53:16;101137.66;;;15.94
62611;BMP280;48683;48.084;17.272;2022-07-09T03:55:41;101129.06;;;16.03
62611;BMP280;48683;48.084;17.272;2022-07-09T03:58:07;101132.88;;;16.09
62611;BMP280;48683;48.084;17.272;2022-07-09T04:00:33;101136.25;;;16.20
62611;BMP280;48683;48.084;17.272;2022-07-09T04:02:58;101128.75;;;16.35
62611;BMP280;48683;48.084;17.272;2022-07-09T04:05:23;101124.00;;;16.49
62611;BMP280;48683;48.084;17.272;2022-07-09T04:07:49;101132.81;;;16.60
62611;BMP280;48683;48.084;17.272;2022-07-09T04:10:14;101121.94;;;16.64
62611;BMP280;48683;48.084;17.272;2022-07-09T04:12:39;101123.47;;;16.65
62611;BMP280;48683;48.084;17.272;2022-07-09T04:15:05;101138.28;;;16.91
62611;BMP280;48683;48.084;17.272;2022-07-09T04:17:30;101135.81;;;17.03
62611;BMP280;48683;48.084;17.272;2022-07-09T04:19:56;101132.94;;;17.14
62611;BMP280;48683;48.084;17.272;2022-07-09T04:22:21;101133.94;;;17.27
62611;BMP280;48683;48.084;17.272;2022-07-09T04:24:46;101127.41;;;17.21
62611;BMP280;48683;48.084;17.272;2022-07-09T04:27:12;101127.38;;;17.25
62611;BMP280;48683;48.084;17.272;2022-07-09T04:29:37;101119.38;;;17.14
62611;BMP280;48683;48.084;17.272;2022-07-09T04:32:03;101116.00;;;17.06
62611;BMP280;48683;48.084;17.272;2022-07-09T04:34:28;101128.28;;;17.15
62611;BMP280;48683;48.084;17.272;2022-07-09T04:36:54;101129.69;;;17.26
62611;BMP280;48683;48.084;17.272;2022-07-09T04:39:19;101127.13;;;17.16
62611;BMP280;48683;48.084;17.272;2022-07-09T04:41:45;101120.16;;;17.15
62611;BMP280;48683;48.084;17.272;2022-07-09T04:44:10;101119.09;;;17.05
62611;BMP280;48683;48.084;17.272;2022-07-09T04:46:40;101116.34;;;17.08
62611;BMP280;48683;48.084;17.272;2022-07-09T04:49:06;101111.44;;;17.00
62611;BMP280;48683;48.084;17.272;2022-07-09T04:51:31;101109.59;;;16.90
62611;BMP280;48683;48.084;17.272;2022-07-09T04:53:56;101109.59;;;16.90
62611;BMP280;48683;48.084;17.272;2022-07-09T04:56:22;101113.13;;;16.87
62611;BMP280;48683;48.084;17.272;2022-07-09T04:58:47;101131.09;;;17.07
62611;BMP280;48683;48.084;17.272;2022-07-09T05:01:19;101105.34;;;16.92
62611;BMP280;48683;48.084;17.272;2022-07-09T05:03:45;101103.88;;;16.84
62611;BMP280;48683;48.084;17.272;2022-07-09T05:06:15;101112.75;;;16.88
62611;BMP280;48683;48.084;17.272;2022-07-09T05:08:40;101109.66;;;16.86
62611;BMP280;48683;48.084;17.272;2022-07-09T05:11:06;101119.25;;;16.94
62611;BMP280;48683;48.084;17.272;2022-07-09T05:13:32;101108.88;;;16.86
62611;BMP280;48683;48.084;17.272;2022-07-09T05:15:57;101111.19;;;16.87
62611;BMP280;48683;48.084;17.272;2022-07-09T05:18:22;101119.59;;;16.96
62611;BMP280;48683;48.084;17.272;2022-07-09T05:20:48;101117.25;;;16.98
62611;BMP280;48683;48.084;17.272;2022-07-09T05:23:13;101116.47;;;16.98
62611;BMP280;48683;48.084;17.272;2022-07-09T05:25:38;101129.28;;;16.97
62611;BMP280;48683;48.084;17.272;2022-07-09T05:28:04;101125.88;;;16.90
62611;BMP280;48683;48.084;17.272;2022-07-09T05:30:29;101133.03;;;17.07
62611;BMP280;48683;48.084;17.272;2022-07-09T05:32:55;101137.41;;;17.28
62611;BMP280;48683;48.084;17.272;2022-07-09T05:35:20;101135.59;;;17.48
62611;BMP280;48683;48.084;17.272;2022-07-09T05:37:45;101127.28;;;17.62
62611;BMP280;48683;48.084;17.272;2022-07-09T05:40:11;101101.63;;;17.36
62611;BMP280;48683;48.084;17.272;2022-07-09T05:42:37;101116.94;;;17.50
62611;BMP280;48683;48.084;17.272;2022-07-09T05:45:03;101118.38;;;17.62
62611;BMP280;48683;48.084;17.272;2022-07-09T05:47:29;101133.25;;;17.77
62611;BMP280;48683;48.084;17.272;2022-07-09T05:49:54;101108.63;;;17.64
62611;BMP280;48683;48.084;17.272;2022-07-09T05:52:26;101120.00;;;17.79
62611;BMP280;48683;48.084;17.272;2022-07-09T05:54:52;101118.38;;;18.08
62611;BMP280;48683;48.084;17.272;2022-07-09T05:57:17;101115.75;;;18.47
62611;BMP280;48683;48.084;17.272;2022-07-09T05:59:43;101114.47;;;18.56
62611;BMP280;48683;48.084;17.272;2022-07-09T06:02:08;101101.19;;;18.58
62611;BMP280;48683;48.084;17.272;2022-07-09T06:04:34;101112.41;;;18.79
62611;BMP280;48683;48.084;17.272;2022-07-09T06:06:59;101109.97;;;19.05
62611;BMP280;48683;48.084;17.272;2022-07-09T06:09:24;101112.53;;;19.12
62611;BMP280;48683;48.084;17.272;2022-07-09T06:11:50;101104.97;;;19.19
62611;BMP280;48683;48.084;17.272;2022-07-09T06:14:15;101116.44;;;19.47
62611;BMP280;48683;48.084;17.272;2022-07-09T06:16:40;101100.78;;;19.51
62611;BMP280;48683;48.084;17.272;2022-07-09T06:19:06;101098.38;;;19.36
62611;BMP280;48683;48.084;17.272;2022-07-09T06:21:31;101107.00;;;19.51
62611;BMP280;48683;48.084;17.272;2022-07-09T06:23:56;101096.47;;;19.53
62611;BMP280;48683;48.084;17.272;2022-07-09T06:26:22;101105.31;;;19.89
62611;BMP280;48683;48.084;17.272;2022-07-09T06:28:47;101085.72;;;19.95
62611;BMP280;48683;48.084;17.272;2022-07-09T06:31:13;101089.06;;;19.70
62611;BMP280;48683;48.084;17.272;2022-07-09T06:33:38;101079.78;;;19.51
62611;BMP280;48683;48.084;17.272;2022-07-09T06:36:04;101087.38;;;19.76
62611;BMP280;48683;48.084;17.272;2022-07-09T06:38:29;101078.06;;;19.89
62611;BMP280;48683;48.084;17.272;2022-07-09T06:40:55;101091.34;;;20.04
62611;BMP280;48683;48.084;17.272;2022-07-09T06:43:21;101082.69;;;20.21
62611;BMP280;48683;48.084;17.272;2022-07-09T06:45:47;101088.25;;;20.34
62611;BMP280;48683;48.084;17.272;2022-07-09T06:48:12;101088.97;;;20.63
62611;BMP280;48683;48.084;17.272;2022-07-09T06:50:38;101087.69;;;20.68
62611;BMP280;48683;48.084;17.272;2022-07-09T06:53:03;101079.63;;;20.77
62611;BMP280;48683;48.084;17.272;2022-07-09T06:55:29;101077.41;;;20.59
62611;BMP280;48683;48.084;17.272;2022-07-09T06:57:56;101074.81;;;20.40
62611;BMP280;48683;48.084;17.272;2022-07-09T07:00:22;101061.13;;;20.27
62611;BMP280;48683;48.084;17.272;2022-07-09T07:02:49;101070.06;;;20.27
62611;BMP280;48683;48.084;17.272;2022-07-09T07:05:14;101066.53;;;20.14
62611;BMP280;48683;48.084;17.272;2022-07-09T07:07:39;101067.63;;;20.17
62611;BMP280;48683;48.084;17.272;2022-07-09T07:10:05;101067.28;;;20.31
62611;BMP280;48683;48.084;17.272;2022-07-09T07:12:30;101055.28;;;20.12
62611;BMP280;48683;48.084;17.272;2022-07-09T07:14:56;101063.94;;;20.23
62611;BMP280;48683;48.084;17.272;2022-07-09T07:17:21;101058.69;;;20.16
62611;BMP280;48683;48.084;17.272;2022-07-09T07:19:46;101061.00;;;20.47
62611;BMP280;48683;48.084;17.272;2022-07-09T07:22:12;101072.38;;;20.58
62611;BMP280;48683;48.084;17.272;2022-07-09T07:24:37;101062.16;;;20.74
62611;BMP280;48683;48.084;17.272;2022-07-09T07:27:03;101065.25;;;20.89
62611;BMP280;48683;48.084;17.272;2022-07-09T07:29:28;101048.41;;;20.65
62611;BMP280;48683;48.084;17.272;2022-07-09T07:31:53;101062.19;;;20.87
62611;BMP280;48683;48.084;17.272;2022-07-09T07:34:19;101055.72;;;20.94
62611;BMP280;48683;48.084;17.272;2022-07-09T07:36:47;101043.84;;;20.88
62611;BMP280;48683;48.084;17.272;2022-07-09T07:39:13;101049.53;;;20.93
62611;BMP280;48683;48.084;17.272;2022-07-09T07:41:38;101059.66;;;21.05
62611;BMP280;48683;48.084;17.272;2022-07-09T07:44:03;101050.94;;;20.98
62611;BMP280;48683;48.084;17.272;2022-07-09T07:46:29;101052.94;;;21.22
62611;BMP280;48683;48.084;17.272;2022-07-09T07:48:54;101052.50;;;21.37
62611;BMP280;48683;48.084;17.272;2022-07-09T07:51:19;101055.44;;;21.29
62611;BMP280;48683;48.084;17.272;2022-07-09T07:53:45;101045.84;;;21.25
62611;BMP280;48683;48.084;17.272;2022-07-09T07:56:10;101038.53;;;21.22
62611;BMP280;48683;48.084;17.272;2022-07-09T07:58:35;101037.31;;;21.23
62611;BMP280;48683;48.084;17.272;2022-07-09T08:01:01;101047.38;;;21.13
62611;BMP280;48683;48.084;17.272;2022-07-09T08:03:27;101048.44;;;21.28
62611;BMP280;48683;48.084;17.272;2022-07-09T08:05:52;101055.44;;;21.55
62611;BMP280;48683;48.084;17.272;2022-07-09T08:08:17;101052.00;;;21.63
62611;BMP280;48683;48.084;17.272;2022-07-09T08:10:44;101048.69;;;21.81
62611;BMP280;48683;48.084;17.272;2022-07-09T08:13:10;101047.31;;;21.64
62611;BMP280;48683;48.084;17.272;2022-07-09T08:15:37;101037.16;;;21.52
62611;BMP280;48683;48.084;17.272;2022-07-09T08:18:02;101031.91;;;21.57
62611;BMP280;48683;48.084;17.272;2022-07-09T08:20:28;101028.94;;;21.64
62611;BMP280;48683;48.084;17.272;2022-07-09T08:22:54;101032.25;;;21.59
62611;BMP280;48683;48.084;17.272;2022-07-09T08:25:19;101028.53;;;21.53
62611;BMP280;48683;48.084;17.272;2022-07-09T08:27:44;101029.19;;;21.57
62611;BMP280;48683;48.084;17.272;2022-07-09T08:30:10;101028.13;;;21.55
62611;BMP280;48683;48.084;17.272;2022-07-09T08:32:37;101030.47;;;21.78
62611;BMP280;48683;48.084;17.272;2022-07-09T08:35:06;101028.16;;;22.11
62611;BMP280;48683;48.084;17.272;2022-07-09T08:37:31;101022.28;;;22.65
62611;BMP280;48683;48.084;17.272;2022-07-09T08:39:56;101025.34;;;22.98
62611;BMP280;48683;48.084;17.272;2022-07-09T08:42:22;101012.00;;;22.69
62611;BMP280;48683;48.084;17.272;2022-07-09T08:44:47;101020.31;;;22.65
62611;BMP280;48683;48.084;17.272;2022-07-09T08:47:15;101014.69;;;22.38
62611;BMP280;48683;48.084;17.272;2022-07-09T08:49:41;101019.19;;;22.76
62611;BMP280;48683;48.084;17.272;2022-07-09T08:52:09;101009.78;;;22.86
62611;BMP280;48683;48.084;17.272;2022-07-09T08:54:35;101008.34;;;23.12
62611;BMP280;48683;48.084;17.272;2022-07-09T08:57:05;101000.16;;;23.12
62611;BMP280;48683;48.084;17.272;2022-07-09T08:59:30;101002.72;;;23.06
62611;BMP280;48683;48.084;17.272;2022-07-09T09:01:56;100994.72;;;23.21
62611;BMP280;48683;48.084;17.272;2022-07-09T09:04:23;101008.03;;;23.59
62611;BMP280;48683;48.084;17.272;2022-07-09T09:06:49;100987.19;;;22.94
62611;BMP280;48683;48.084;17.272;2022-07-09T09:09:19;100989.09;;;22.76
62611;BMP280;48683;48.084;17.272;2022-07-09T09:11:47;100983.22;;;22.64
62611;BMP280;48683;48.084;17.272;2022-07-09T09:14:20;100980.72;;;22.79
62611;BMP280;48683;48.084;17.272;2022-07-09T09:16:46;100985.06;;;23.07
62611;BMP280;48683;48.084;17.272;2022-07-09T09:19:11;100977.22;;;23.18
62611;BMP280;48683;48.084;17.272;2022-07-09T09:21:37;100978.09;;;23.15
62611;BMP280;48683;48.084;17.272;2022-07-09T09:24:03;100976.91;;;23.26
62611;BMP280;48683;48.084;17.272;2022-07-09T09:26:28;100954.13;;;23.38
62611;BMP280;48683;48.084;17.272;2022-07-09T09:29:00;100955.94;;;23.41
62611;BMP280;48683;48.084;17.272;2022-07-09T09:31:30;100964.19;;;23.59
62611;BMP280;48683;48.084;17.272;2022-07-09T09:33:58;100957.97;;;23.68
62611;BMP280;48683;48.084;17.272;2022-07-09T09:36:40;100947.16;;;23.46
62611;BMP280;48683;48.084;17.272;2022-07-09T09:39:16;100949.25;;;23.78
62611;BMP280;48683;48.084;17.272;2022-07-09T09:41:46;100934.53;;;23.57
62611;BMP280;48683;48.084;17.272;2022-07-09T09:44:14;100943.50;;;23.76
62611;BMP280;48683;48.084;17.272;2022-07-09T09:46:41;100930.53;;;23.95
62611;BMP280;48683;48.084;17.272;2022-07-09T09:49:08;100936.78;;;23.95
62611;BMP280;48683;48.084;17.272;2022-07-09T09:51:36;100925.03;;;23.95
62611;BMP280;48683;48.084;17.272;2022-07-09T09:54:03;100923.63;;;24.08
62611;BMP280;48683;48.084;17.272;2022-07-09T09:56:28;100922.72;;;24.11
62611;BMP280;48683;48.084;17.272;2022-07-09T09:58:55;100931.81;;;24.36
62611;BMP280;48683;48.084;17.272;2022-07-09T10:01:21;100911.56;;;24.33
62611;BMP280;48683;48.084;17.272;2022-07-09T10:03:48;100920.63;;;24.16
62611;BMP280;48683;48.084;17.272;2022-07-09T10:06:14;100921.28;;;24.43
62611;BMP280;48683;48.084;17.272;2022-07-09T10:08:40;100917.66;;;24.70
62611;BMP280;48683;48.084;17.272;2022-07-09T10:11:05;100907.44;;;24.38
62611;BMP280;48683;48.084;17.272;2022-07-09T10:13:31;100902.19;;;24.16
62611;BMP280;48683;48.084;17.272;2022-07-09T10:15:56;100895.59;;;24.23
62611;BMP280;48683;48.084;17.272;2022-07-09T10:18:21;100908.41;;;24.58
62611;BMP280;48683;48.084;17.272;2022-07-09T10:20:47;100915.34;;;24.78
62611;BMP280;48683;48.084;17.272;2022-07-09T10:23:25;100895.75;;;24.94
62611;BMP280;48683;48.084;17.272;2022-07-09T10:25:51;100887.84;;;24.87
62611;BMP280;48683;48.084;17.272;2022-07-09T10:28:21;100889.81;;;24.86
62611;BMP280;48683;48.084;17.272;2022-07-09T10:30:47;100892.47;;;25.28
62611;BMP280;48683;48.084;17.272;2022-07-09T10:33:13;100881.88;;;25.12
62611;BMP280;48683;48.084;17.272;2022-07-09T10:35:52;100878.16;;;25.39
62611;BMP280;48683;48.084;17.272;2022-07-09T10:38:19;100868.69;;;25.01
62611;BMP280;48683;48.084;17.272;2022-07-09T10:40:56;100867.91;;;24.77
62611;BMP280;48683;48.084;17.272;2022-07-09T10:43:37;100866.56;;;24.73
62611;BMP280;48683;48.084;17.272;2022-07-09T10:46:09;100864.44;;;24.68
62611;BMP280;48683;48.084;17.272;2022-07-09T10:48:36;100866.53;;;24.49
62611;BMP280;48683;48.084;17.272;2022-07-09T10:51:01;100860.00;;;24.46
62611;BMP280;48683;48.084;17.272;2022-07-09T10:53:28;100869.69;;;24.56
62611;BMP280;48683;48.084;17.272;2022-07-09T10:55:54;100858.72;;;24.24
62611;BMP280;48683;48.084;17.272;2022-07-09T10:58:21;100865.34;;;24.41
62611;BMP280;48683;48.084;17.272;2022-07-09T11:00:58;100868.16;;;24.88
62611;BMP280;48683;48.084;17.272;2022-07-09T11:03:27;100868.16;;;24.88
62611;BMP280;48683;48.084;17.272;2022-07-09T11:05:53;100846.47;;;25.14
62611;BMP280;48683;48.084;17.272;2022-07-09T11:08:18;100842.47;;;25.00
62611;BMP280;48683;48.084;17.272;2022-07-09T11:10:44;100834.56;;;24.70
62611;BMP280;48683;48.084;17.272;2022-07-09T11:13:09;100842.25;;;24.89
62611;BMP280;48683;48.084;17.272;2022-07-09T11:15:36;100840.47;;;25.39
62611;BMP280;48683;48.084;17.272;2022-07-09T11:18:10;100829.31;;;25.58
62611;BMP280;48683;48.084;17.272;2022-07-09T11:23:05;100837.44;;;26.11
62611;BMP280;48683;48.084;17.272;2022-07-09T11:25:31;100837.44;;;26.11
62611;BMP280;48683;48.084;17.272;2022-07-09T11:27:57;100814.91;;;25.77
62611;BMP280;48683;48.084;17.272;2022-07-09T11:30:23;100811.47;;;25.38
62611;BMP280;48683;48.084;17.272;2022-07-09T11:32:49;100808.13;;;25.34
62611;BMP280;48683;48.084;17.272;2022-07-09T11:35:43;100806.53;;;25.42
62611;BMP280;48683;48.084;17.272;2022-07-09T11:38:10;100795.56;;;25.57
62611;BMP280;48683;48.084;17.272;2022-07-09T11:40:35;100798.50;;;25.68
62611;BMP280;48683;48.084;17.272;2022-07-09T11:43:01;100795.16;;;25.35
62611;BMP280;48683;48.084;17.272;2022-07-09T11:45:28;100794.66;;;24.83
62611;BMP280;48683;48.084;17.272;2022-07-09T11:48:07;100803.88;;;25.33
62611;BMP280;48683;48.084;17.272;2022-07-09T11:50:40;100799.53;;;25.85
62611;BMP280;48683;48.084;17.272;2022-07-09T11:53:19;100794.09;;;26.20
62611;BMP280;48683;48.084;17.272;2022-07-09T11:56:02;100779.94;;;25.63
62611;BMP280;48683;48.084;17.272;2022-07-09T11:58:29;100778.13;;;25.75
62611;BMP280;48683;48.084;17.272;2022-07-09T12:00:55;100767.59;;;25.44
62611;BMP280;48683;48.084;17.272;2022-07-09T12:03:24;100768.78;;;25.52
62611;BMP280;48683;48.084;17.272;2022-07-09T12:05:50;100772.78;;;25.13
62611;BMP280;48683;48.084;17.272;2022-07-09T12:08:26;100773.38;;;25.17
62611;BMP280;48683;48.084;17.272;2022-07-09T12:10:51;100773.31;;;25.70
62611;BMP280;48683;48.084;17.272;2022-07-09T12:13:16;100758.59;;;25.87
62611;BMP280;48683;48.084;17.272;2022-07-09T12:15:42;100751.38;;;25.90
62611;BMP280;48683;48.084;17.272;2022-07-09T12:18:07;100752.25;;;26.16
62611;BMP280;48683;48.084;17.272;2022-07-09T12:20:32;100759.56;;;26.19
62611;BMP280;48683;48.084;17.272;2022-07-09T12:22:58;100746.31;;;26.38
62611;BMP280;48683;48.084;17.272;2022-07-09T12:25:24;100742.13;;;26.08
62611;BMP280;48683;48.084;17.272;2022-07-09T12:27:49;100721.69;;;26.29
62611;BMP280;48683;48.084;17.272;2022-07-09T12:30:15;100745.38;;;26.61
62611;BMP280;48683;48.084;17.272;2022-07-09T12:32:41;100740.19;;;26.69
62611;BMP280;48683;48.084;17.272;2022-07-09T12:35:08;100733.97;;;26.74
62611;BMP280;48683;48.084;17.272;2022-07-09T12:37:34;100727.44;;;26.31
62611;BMP280;48683;48.084;17.272;2022-07-09T12:40:00;100725.06;;;26.04
62611;BMP280;48683;48.084;17.272;2022-07-09T12:42:26;100720.47;;;25.95
62611;BMP280;48683;48.084;17.272;2022-07-09T12:44:51;100733.50;;;26.35
62611;BMP280;48683;48.084;17.272;2022-07-09T12:47:17;100713.56;;;26.40
62611;BMP280;48683;48.084;17.272;2022-07-09T12:49:42;100700.66;;;26.26
62611;BMP280;48683;48.084;17.272;2022-07-09T12:52:08;100712.13;;;25.89
62611;BMP280;48683;48.084;17.272;2022-07-09T12:54:33;100709.03;;;25.67
62611;BMP280;48683;48.084;17.272;2022-07-09T12:56:59;100700.88;;;25.73
62611;BMP280;48683;48.084;17.272;2022-07-09T12:59:24;100695.81;;;26.41
62611;BMP280;48683;48.084;17.272;2022-07-09T13:01:50;100688.63;;;26.69
62611;BMP280;48683;48.084;17.272;2022-07-09T13:04:15;100701.00;;;27.00
62611;BMP280;48683;48.084;17.272;2022-07-09T13:06:41;100697.88;;;27.18
62611;BMP280;48683;48.084;17.272;2022-07-09T13:09:08;100685.41;;;27.22
62611;BMP280;48683;48.084;17.272;2022-07-09T13:11:35;100688.41;;;27.50
62611;BMP280;48683;48.084;17.272;2022-07-09T13:14:00;100680.81;;;27.45
62611;BMP280;48683;48.084;17.272;2022-07-09T13:16:26;100685.44;;;27.59
62611;BMP280;48683;48.084;17.272;2022-07-09T13:18:52;100675.59;;;27.47
62611;BMP280;48683;48.084;17.272;2022-07-09T13:21:18;100674.00;;;27.35
62611;BMP280;48683;48.084;17.272;2022-07-09T13:23:44;100675.22;;;27.34
62611;BMP280;48683;48.084;17.272;2022-07-09T13:26:10;100665.91;;;27.26
62611;BMP280;48683;48.084;17.272;2022-07-09T13:28:35;100665.41;;;27.27
62611;BMP280;48683;48.084;17.272;2022-07-09T13:31:01;100655.19;;;27.33
62611;BMP280;48683;48.084;17.272;2022-07-09T13:33:26;100661.16;;;27.26
62611;BMP280;48683;48.084;17.272;2022-07-09T13:35:51;100666.44;;;27.30
62611;BMP280;48683;48.084;17.272;2022-07-09T13:38:17;100659.81;;;27.48
62611;BMP280;48683;48.084;17.272;2022-07-09T13:40:42;100661.88;;;27.53